sensor_id;sensor_type;location;lat;lon;timestamp;P1;durP1;ratioP1;P2;durP2;ratioP2
5345;SDS011;2695;49.444;11.054;2023-02-01T00:01:17;3.57;;;3.27;;
5345;SDS011;2695;49.444;11.054;2023-02-01T00:03:45;4.87;;;3.90;;
5345;SDS011;2695;49.444;11.054;2023-02-01T00:06:13;3.50;;;3.20;;
5345;SDS011;2695;49.444;11.054;2023-02-01T00:08:41;4.83;;;4.20;;
5345;SDS011;2695;49.444;11.054;2023-02-01T00:11:09;5.00;;;4.03;;
5345;SDS011;2695;49.444;11.054;2023-02-01T00:13:40;4.53;;;3.93;;
5345;SDS011;2695;49.444;11.054;2023-02-01T00:16:09;4.80;;;3.47;;
5345;SDS011;2695;49.444;11.054;2023-02-01T00:18:40;6.03;;;4.03;;
5345;SDS011;2695;49.444;11.054;2023-02-01T00:21:09;5.87;;;3.80;;
5345;SDS011;2695;49.444;11.054;2023-02-01T00:23:37;4.50;;;3.43;;
5345;SDS011;2695;49.444;11.054;2023-02-01T00:26:07;4.77;;;3.47;;
5345;SDS011;2695;49.444;11.054;2023-02-01T00:28:39;4.97;;;4.47;;
5345;SDS011;2695;49.444;11.054;2023-02-01T00:31:07;6.03;;;3.70;;
5345;SDS011;2695;49.444;11.054;2023-02-01T00:33:35;4.03;;;3.63;;
5345;SDS011;2695;49.444;11.054;2023-02-01T00:36:05;6.00;;;3.80;;
5345;SDS011;2695;49.444;11.054;2023-02-01T00:38:36;3.80;;;3.40;;
5345;SDS011;2695;49.444;11.054;2023-02-01T00:41:05;6.73;;;3.57;;
5345;SDS011;2695;49.444;11.054;2023-02-01T00:43:35;5.00;;;3.73;;
5345;SDS011;2695;49.444;11.054;2023-02-01T00:46:03;3.57;;;3.10;;
5345;SDS011;2695;49.444;11.054;2023-02-01T00:48:31;5.93;;;3.63;;
5345;SDS011;2695;49.444;11.054;2023-02-01T00:50:59;7.50;;;3.77;;
5345;SDS011;2695;49.444;11.054;2023-02-01T00:53:29;8.50;;;3.40;;
5345;SDS011;2695;49.444;11.054;2023-02-01T00:55:57;6.53;;;4.57;;
5345;SDS011;2695;49.444;11.054;2023-02-01T00:58:26;5.90;;;3.43;;
5345;SDS011;2695;49.444;11.054;2023-02-01T01:01:00;4.77;;;3.70;;
5345;SDS011;2695;49.444;11.054;2023-02-01T01:03:30;5.10;;;3.47;;
5345;SDS011;2695;49.444;11.054;2023-02-01T01:06:00;6.70;;;4.03;;
5345;SDS011;2695;49.444;11.054;2023-02-01T01:08:30;5.47;;;3.53;;
5345;SDS011;2695;49.444;11.054;2023-02-01T01:10:58;3.90;;;3.50;;
5345;SDS011;2695;49.444;11.054;2023-02-01T01:13:30;5.97;;;4.10;;
5345;SDS011;2695;49.444;11.054;2023-02-01T01:15:59;4.50;;;3.17;;
5345;SDS011;2695;49.444;11.054;2023-02-01T01:18:29;6.40;;;3.73;;
5345;SDS011;2695;49.444;11.054;2023-02-01T01:20:57;6.87;;;4.00;;
5345;SDS011;2695;49.444;11.054;2023-02-01T01:23:26;5.53;;;4.23;;
5345;SDS011;2695;49.444;11.054;2023-02-01T01:25:56;6.50;;;3.70;;
5345;SDS011;2695;49.444;11.054;2023-02-01T01:28:24;10.97;;;4.27;;
5345;SDS011;2695;49.444;11.054;2023-02-01T01:30:52;6.10;;;3.67;;
5345;SDS011;2695;49.444;11.054;2023-02-01T01:33:20;6.10;;;4.27;;
5345;SDS011;2695;49.444;11.054;2023-02-01T01:35:48;4.27;;;3.87;;
5345;SDS011;2695;49.444;11.054;2023-02-01T01:38:16;6.40;;;3.90;;
5345;SDS011;2695;49.444;11.054;2023-02-01T01:40:44;4.43;;;3.50;;
5345;SDS011;2695;49.444;11.054;2023-02-01T01:43:14;7.23;;;4.30;;
5345;SDS011;2695;49.444;11.054;2023-02-01T01:45:43;4.50;;;3.33;;
5345;SDS011;2695;49.444;11.054;2023-02-01T01:48:13;5.90;;;4.30;;
5345;SDS011;2695;49.444;11.054;2023-02-01T01:50:46;4.20;;;3.77;;
5345;SDS011;2695;49.444;11.054;2023-02-01T01:53:18;4.00;;;3.60;;
5345;SDS011;2695;49.444;11.054;2023-02-01T01:55:50;7.10;;;3.80;;
5345;SDS011;2695;49.444;11.054;2023-02-01T01:58:23;4.63;;;3.97;;
5345;SDS011;2695;49.444;11.054;2023-02-01T02:00:53;7.10;;;4.10;;
5345;SDS011;2695;49.444;11.054;2023-02-01T02:03:22;7.27;;;4.40;;
5345;SDS011;2695;49.444;11.054;2023-02-01T02:05:54;4.00;;;3.23;;
5345;SDS011;2695;49.444;11.054;2023-02-01T02:08:25;6.90;;;3.50;;
5345;SDS011;2695;49.444;11.054;2023-02-01T02:10:54;6.87;;;3.73;;
5345;SDS011;2695;49.444;11.054;2023-02-01T02:13:31;3.27;;;2.90;;
5345;SDS011;2695;49.444;11.054;2023-02-01T02:19:22;5.13;;;3.43;;
5345;SDS011;2695;49.444;11.054;2023-02-01T02:22:09;5.90;;;3.13;;
5345;SDS011;2695;49.444;11.054;2023-02-01T02:24:57;4.50;;;4.10;;
5345;SDS011;2695;49.444;11.054;2023-02-01T02:27:48;8.13;;;3.60;;
5345;SDS011;2695;49.444;11.054;2023-02-01T02:30:33;3.93;;;2.40;;
5345;SDS011;2695;49.444;11.054;2023-02-01T02:36:16;3.87;;;2.83;;
5345;SDS011;2695;49.444;11.054;2023-02-01T02:38:48;4.23;;;3.40;;
5345;SDS011;2695;49.444;11.054;2023-02-01T02:41:25;4.60;;;3.80;;
5345;SDS011;2695;49.444;11.054;2023-02-01T02:44:18;4.43;;;3.60;;
5345;SDS011;2695;49.444;11.054;2023-02-01T02:47:10;5.67;;;3.30;;
5345;SDS011;2695;49.444;11.054;2023-02-01T02:49:54;7.03;;;4.13;;
5345;SDS011;2695;49.444;11.054;2023-02-01T02:52:45;4.60;;;3.70;;
5345;SDS011;2695;49.444;11.054;2023-02-01T02:55:35;5.07;;;3.47;;
5345;SDS011;2695;49.444;11.054;2023-02-01T02:58:06;5.03;;;3.87;;
5345;SDS011;2695;49.444;11.054;2023-02-01T03:00:55;5.70;;;3.77;;
5345;SDS011;2695;49.444;11.054;2023-02-01T03:03:42;5.67;;;4.03;;
5345;SDS011;2695;49.444;11.054;2023-02-01T03:06:37;4.00;;;3.57;;
5345;SDS011;2695;49.444;11.054;2023-02-01T03:09:08;5.70;;;3.60;;
5345;SDS011;2695;49.444;11.054;2023-02-01T03:11:41;4.13;;;3.73;;
5345;SDS011;2695;49.444;11.054;2023-02-01T03:14:30;4.73;;;3.73;;
5345;SDS011;2695;49.444;11.054;2023-02-01T03:17:01;3.83;;;3.47;;
5345;SDS011;2695;49.444;11.054;2023-02-01T03:19:36;7.70;;;4.00;;
5345;SDS011;2695;49.444;11.054;2023-02-01T03:22:11;6.10;;;4.30;;
5345;SDS011;2695;49.444;11.054;2023-02-01T03:24:42;5.30;;;3.60;;
5345;SDS011;2695;49.444;11.054;2023-02-01T03:27:14;4.73;;;4.23;;
5345;SDS011;2695;49.444;11.054;2023-02-01T03:29:48;5.23;;;3.60;;
5345;SDS011;2695;49.444;11.054;2023-02-01T03:32:19;6.80;;;4.63;;
5345;SDS011;2695;49.444;11.054;2023-02-01T03:34:47;6.20;;;4.13;;
5345;SDS011;2695;49.444;11.054;2023-02-01T03:37:20;6.40;;;4.73;;
5345;SDS011;2695;49.444;11.054;2023-02-01T03:39:52;4.70;;;4.17;;
5345;SDS011;2695;49.444;11.054;2023-02-01T03:42:26;5.17;;;4.37;;
5345;SDS011;2695;49.444;11.054;2023-02-01T03:44:58;6.53;;;4.50;;
5345;SDS011;2695;49.444;11.054;2023-02-01T03:47:33;5.40;;;4.80;;
5345;SDS011;2695;49.444;11.054;2023-02-01T03:50:04;7.03;;;4.70;;
5345;SDS011;2695;49.444;11.054;2023-02-01T03:52:36;8.43;;;5.23;;
5345;SDS011;2695;49.444;11.054;2023-02-01T03:55:08;8.47;;;4.40;;
5345;SDS011;2695;49.444;11.054;2023-02-01T03:57:41;5.60;;;4.90;;
5345;SDS011;2695;49.444;11.054;2023-02-01T04:00:15;5.27;;;4.47;;
5345;SDS011;2695;49.444;11.054;2023-02-01T04:02:46;7.10;;;4.43;;
5345;SDS011;2695;49.444;11.054;2023-02-01T04:05:14;6.20;;;4.23;;
5345;SDS011;2695;49.444;11.054;2023-02-01T04:07:44;7.30;;;5.37;;
5345;SDS011;2695;49.444;11.054;2023-02-01T04:10:12;13.17;;;4.97;;
5345;SDS011;2695;49.444;11.054;2023-02-01T04:12:40;4.83;;;4.00;;
5345;SDS011;2695;49.444;11.054;2023-02-01T04:15:08;5.70;;;4.20;;
5345;SDS011;2695;49.444;11.054;2023-02-01T04:17:37;6.03;;;4.63;;
5345;SDS011;2695;49.444;11.054;2023-02-01T04:20:05;5.80;;;5.00;;
5345;SDS011;2695;49.444;11.054;2023-02-01T04:22:33;8.37;;;4.57;;
5345;SDS011;2695;49.444;11.054;2023-02-01T04:25:02;7.07;;;5.00;;
5345;SDS011;2695;49.444;11.054;2023-02-01T04:27:31;9.53;;;4.80;;
5345;SDS011;2695;49.444;11.054;2023-02-01T04:29:59;5.97;;;4.47;;
5345;SDS011;2695;49.444;11.054;2023-02-01T04:32:27;7.00;;;3.93;;
5345;SDS011;2695;49.444;11.054;2023-02-01T04:34:55;7.97;;;4.77;;
5345;SDS011;2695;49.444;11.054;2023-02-01T04:37:23;6.30;;;4.90;;
5345;SDS011;2695;49.444;11.054;2023-02-01T04:39:51;7.27;;;4.97;;
5345;SDS011;2695;49.444;11.054;2023-02-01T04:42:20;7.50;;;4.50;;
5345;SDS011;2695;49.444;11.054;2023-02-01T04:44:48;6.40;;;4.70;;
5345;SDS011;2695;49.444;11.054;2023-02-01T04:47:16;5.20;;;4.70;;
5345;SDS011;2695;49.444;11.054;2023-02-01T04:49:44;5.03;;;4.03;;
5345;SDS011;2695;49.444;11.054;2023-02-01T04:52:12;6.40;;;3.50;;
5345;SDS011;2695;49.444;11.054;2023-02-01T04:54:40;7.30;;;4.57;;
5345;SDS011;2695;49.444;11.054;2023-02-01T04:57:08;8.90;;;4.90;;
5345;SDS011;2695;49.444;11.054;2023-02-01T04:59:38;7.50;;;5.27;;
5345;SDS011;2695;49.444;11.054;2023-02-01T05:02:07;6.40;;;3.90;;
5345;SDS011;2695;49.444;11.054;2023-02-01T05:04:35;8.10;;;4.87;;
5345;SDS011;2695;49.444;11.054;2023-02-01T05:07:03;6.17;;;4.73;;
5345;SDS011;2695;49.444;11.054;2023-02-01T05:09:30;16.60;;;6.07;;
5345;SDS011;2695;49.444;11.054;2023-02-01T05:11:58;9.50;;;4.77;;
5345;SDS011;2695;49.444;11.054;2023-02-01T05:14:45;7.63;;;4.63;;
5345;SDS011;2695;49.444;11.054;2023-02-01T05:17:13;6.80;;;4.60;;
5345;SDS011;2695;49.444;11.054;2023-02-01T05:19:41;5.87;;;4.57;;
5345;SDS011;2695;49.444;11.054;2023-02-01T05:22:09;8.90;;;4.93;;
5345;SDS011;2695;49.444;11.054;2023-02-01T05:24:37;6.80;;;4.27;;
5345;SDS011;2695;49.444;11.054;2023-02-01T05:27:05;8.73;;;5.73;;
5345;SDS011;2695;49.444;11.054;2023-02-01T05:29:33;7.47;;;5.13;;
5345;SDS011;2695;49.444;11.054;2023-02-01T05:32:03;7.30;;;5.60;;
5345;SDS011;2695;49.444;11.054;2023-02-01T05:34:47;5.27;;;4.00;;
5345;SDS011;2695;49.444;11.054;2023-02-01T05:37:15;6.70;;;5.20;;
5345;SDS011;2695;49.444;11.054;2023-02-01T05:39:43;7.27;;;4.57;;
5345;SDS011;2695;49.444;11.054;2023-02-01T05:42:11;12.63;;;5.20;;
5345;SDS011;2695;49.444;11.054;2023-02-01T05:44:39;17.90;;;6.73;;
5345;SDS011;2695;49.444;11.054;2023-02-01T05:47:08;6.53;;;5.00;;
5345;SDS011;2695;49.444;11.054;2023-02-01T05:49:36;8.60;;;4.50;;
5345;SDS011;2695;49.444;11.054;2023-02-01T05:52:04;6.30;;;4.63;;
5345;SDS011;2695;49.444;11.054;2023-02-01T05:54:33;7.90;;;4.60;;
5345;SDS011;2695;49.444;11.054;2023-02-01T05:57:02;12.47;;;5.30;;
5345;SDS011;2695;49.444;11.054;2023-02-01T05:59:30;12.23;;;5.40;;
5345;SDS011;2695;49.444;11.054;2023-02-01T06:01:58;10.00;;;4.07;;
5345;SDS011;2695;49.444;11.054;2023-02-01T06:04:27;8.30;;;4.47;;
5345;SDS011;2695;49.444;11.054;2023-02-01T06:06:55;6.10;;;4.67;;
5345;SDS011;2695;49.444;11.054;2023-02-01T06:09:23;5.53;;;4.40;;
5345;SDS011;2695;49.444;11.054;2023-02-01T06:11:51;11.23;;;4.00;;
5345;SDS011;2695;49.444;11.054;2023-02-01T06:14:20;6.90;;;3.03;;
5345;SDS011;2695;49.444;11.054;2023-02-01T06:16:48;4.80;;;2.87;;
5345;SDS011;2695;49.444;11.054;2023-02-01T06:19:16;4.00;;;3.00;;
5345;SDS011;2695;49.444;11.054;2023-02-01T06:21:45;5.50;;;3.17;;
5345;SDS011;2695;49.444;11.054;2023-02-01T06:24:13;4.63;;;3.13;;
5345;SDS011;2695;49.444;11.054;2023-02-01T06:26:44;4.73;;;3.43;;
5345;SDS011;2695;49.444;11.054;2023-02-01T06:29:12;3.30;;;3.00;;
5345;SDS011;2695;49.444;11.054;2023-02-01T06:31:40;4.30;;;3.00;;
5345;SDS011;2695;49.444;11.054;2023-02-01T06:34:09;2.87;;;2.57;;
5345;SDS011;2695;49.444;11.054;2023-02-01T06:36:38;3.87;;;2.90;;
5345;SDS011;2695;49.444;11.054;2023-02-01T06:39:07;3.40;;;3.10;;
5345;SDS011;2695;49.444;11.054;2023-02-01T06:41:35;3.23;;;2.50;;
5345;SDS011;2695;49.444;11.054;2023-02-01T06:44:03;4.17;;;2.90;;
5345;SDS011;2695;49.444;11.054;2023-02-01T06:46:31;3.00;;;2.47;;
5345;SDS011;2695;49.444;11.054;2023-02-01T06:48:59;2.50;;;2.30;;
5345;SDS011;2695;49.444;11.054;2023-02-01T06:51:27;2.10;;;2.00;;
5345;SDS011;2695;49.444;11.054;2023-02-01T06:53:56;3.40;;;2.47;;
5345;SDS011;2695;49.444;11.054;2023-02-01T06:56:26;2.60;;;2.10;;
5345;SDS011;2695;49.444;11.054;2023-02-01T06:58:54;3.00;;;2.10;;
5345;SDS011;2695;49.444;11.054;2023-02-01T07:01:22;2.50;;;2.23;;
5345;SDS011;2695;49.444;11.054;2023-02-01T07:03:50;2.63;;;2.00;;
5345;SDS011;2695;49.444;11.054;2023-02-01T07:06:18;2.87;;;2.53;;
5345;SDS011;2695;49.444;11.054;2023-02-01T07:08:55;2.47;;;2.27;;
5345;SDS011;2695;49.444;11.054;2023-02-01T07:11:24;2.00;;;1.80;;
5345;SDS011;2695;49.444;11.054;2023-02-01T07:13:54;4.27;;;1.90;;
5345;SDS011;2695;49.444;11.054;2023-02-01T07:16:22;2.60;;;2.30;;
5345;SDS011;2695;49.444;11.054;2023-02-01T07:18:51;2.70;;;2.23;;
5345;SDS011;2695;49.444;11.054;2023-02-01T07:21:20;7.63;;;2.40;;
5345;SDS011;2695;49.444;11.054;2023-02-01T07:23:48;8.70;;;2.50;;
5345;SDS011;2695;49.444;11.054;2023-02-01T07:26:18;3.17;;;2.70;;
5345;SDS011;2695;49.444;11.054;2023-02-01T07:28:46;6.00;;;2.23;;
5345;SDS011;2695;49.444;11.054;2023-02-01T07:31:17;3.70;;;2.60;;
5345;SDS011;2695;49.444;11.054;2023-02-01T07:33:48;3.80;;;2.90;;
5345;SDS011;2695;49.444;11.054;2023-02-01T07:36:18;3.63;;;2.43;;
5345;SDS011;2695;49.444;11.054;2023-02-01T07:38:47;4.03;;;2.77;;
5345;SDS011;2695;49.444;11.054;2023-02-01T07:41:21;3.87;;;2.30;;
5345;SDS011;2695;49.444;11.054;2023-02-01T07:43:51;5.87;;;3.40;;
5345;SDS011;2695;49.444;11.054;2023-02-01T07:46:22;4.03;;;2.40;;
5345;SDS011;2695;49.444;11.054;2023-02-01T07:48:50;2.40;;;2.20;;
5345;SDS011;2695;49.444;11.054;2023-02-01T07:51:18;3.40;;;2.60;;
5345;SDS011;2695;49.444;11.054;2023-02-01T07:53:46;4.37;;;2.50;;
5345;SDS011;2695;49.444;11.054;2023-02-01T07:56:19;2.90;;;2.30;;
5345;SDS011;2695;49.444;11.054;2023-02-01T07:58:48;5.10;;;2.77;;
5345;SDS011;2695;49.444;11.054;2023-02-01T08:01:17;2.73;;;2.30;;
5345;SDS011;2695;49.444;11.054;2023-02-01T08:03:50;5.90;;;2.60;;
5345;SDS011;2695;49.444;11.054;2023-02-01T08:06:19;2.70;;;2.47;;
5345;SDS011;2695;49.444;11.054;2023-02-01T08:08:48;5.13;;;2.40;;
5345;SDS011;2695;49.444;11.054;2023-02-01T08:11:17;3.50;;;2.43;;
5345;SDS011;2695;49.444;11.054;2023-02-01T08:13:46;4.07;;;2.37;;
5345;SDS011;2695;49.444;11.054;2023-02-01T08:16:15;4.10;;;1.90;;
5345;SDS011;2695;49.444;11.054;2023-02-01T08:18:44;3.13;;;2.50;;
5345;SDS011;2695;49.444;11.054;2023-02-01T08:21:14;3.53;;;2.13;;
5345;SDS011;2695;49.444;11.054;2023-02-01T08:23:44;3.17;;;2.20;;
5345;SDS011;2695;49.444;11.054;2023-02-01T08:26:13;6.97;;;2.30;;
5345;SDS011;2695;49.444;11.054;2023-02-01T08:28:43;4.67;;;2.00;;
5345;SDS011;2695;49.444;11.054;2023-02-01T08:31:14;4.30;;;1.70;;
5345;SDS011;2695;49.444;11.054;2023-02-01T08:33:44;3.90;;;1.53;;
5345;SDS011;2695;49.444;11.054;2023-02-01T08:36:17;2.67;;;1.93;;
5345;SDS011;2695;49.444;11.054;2023-02-01T08:38:46;3.70;;;2.20;;
5345;SDS011;2695;49.444;11.054;2023-02-01T08:41:15;4.10;;;1.67;;
5345;SDS011;2695;49.444;11.054;2023-02-01T08:43:44;3.40;;;1.90;;
5345;SDS011;2695;49.444;11.054;2023-02-01T08:46:14;3.00;;;1.90;;
5345;SDS011;2695;49.444;11.054;2023-02-01T08:48:42;4.93;;;1.80;;
5345;SDS011;2695;49.444;11.054;2023-02-01T08:51:13;3.50;;;1.30;;
5345;SDS011;2695;49.444;11.054;2023-02-01T08:53:44;3.10;;;1.70;;
5345;SDS011;2695;49.444;11.054;2023-02-01T08:56:13;3.20;;;1.80;;
5345;SDS011;2695;49.444;11.054;2023-02-01T08:58:42;7.60;;;2.30;;
5345;SDS011;2695;49.444;11.054;2023-02-01T09:01:11;11.30;;;2.07;;
5345;SDS011;2695;49.444;11.054;2023-02-01T09:03:40;5.30;;;2.30;;
5345;SDS011;2695;49.444;11.054;2023-02-01T09:06:10;2.47;;;2.00;;
5345;SDS011;2695;49.444;11.054;2023-02-01T09:08:40;4.43;;;2.43;;
5345;SDS011;2695;49.444;11.054;2023-02-01T09:11:10;11.27;;;3.40;;
5345;SDS011;2695;49.444;11.054;2023-02-01T09:13:40;6.17;;;2.57;;
5345;SDS011;2695;49.444;11.054;2023-02-01T09:16:08;4.20;;;2.80;;
5345;SDS011;2695;49.444;11.054;2023-02-01T09:18:37;3.43;;;2.40;;
5345;SDS011;2695;49.444;11.054;2023-02-01T09:21:25;10.40;;;2.87;;
5345;SDS011;2695;49.444;11.054;2023-02-01T09:23:53;3.73;;;2.07;;
5345;SDS011;2695;49.444;11.054;2023-02-01T09:26:22;5.07;;;2.20;;
5345;SDS011;2695;49.444;11.054;2023-02-01T09:28:58;8.10;;;2.30;;
5345;SDS011;2695;49.444;11.054;2023-02-01T09:31:26;1.83;;;1.50;;
5345;SDS011;2695;49.444;11.054;2023-02-01T09:33:54;3.57;;;1.80;;
5345;SDS011;2695;49.444;11.054;2023-02-01T09:36:22;4.93;;;2.00;;
5345;SDS011;2695;49.444;11.054;2023-02-01T09:38:50;4.00;;;1.50;;
5345;SDS011;2695;49.444;11.054;2023-02-01T09:41:29;8.20;;;1.60;;
5345;SDS011;2695;49.444;11.054;2023-02-01T09:44:07;5.03;;;1.70;;
5345;SDS011;2695;49.444;11.054;2023-02-01T09:46:45;6.33;;;1.73;;
5345;SDS011;2695;49.444;11.054;2023-02-01T09:49:15;11.10;;;1.50;;
5345;SDS011;2695;49.444;11.054;2023-02-01T09:51:48;3.03;;;1.50;;
5345;SDS011;2695;49.444;11.054;2023-02-01T09:54:19;5.73;;;1.53;;
5345;SDS011;2695;49.444;11.054;2023-02-01T09:56:51;3.70;;;1.80;;
5345;SDS011;2695;49.444;11.054;2023-02-01T09:59:26;6.73;;;1.90;;
5345;SDS011;2695;49.444;11.054;2023-02-01T10:01:59;5.53;;;1.53;;
5345;SDS011;2695;49.444;11.054;2023-02-01T10:04:38;5.47;;;2.10;;
5345;SDS011;2695;49.444;11.054;2023-02-01T10:07:10;5.57;;;1.70;;
5345;SDS011;2695;49.444;11.054;2023-02-01T10:09:50;7.40;;;2.10;;
5345;SDS011;2695;49.444;11.054;2023-02-01T10:12:42;6.03;;;1.93;;
5345;SDS011;2695;49.444;11.054;2023-02-01T10:15:40;5.80;;;2.43;;
5345;SDS011;2695;49.444;11.054;2023-02-01T10:18:30;9.53;;;2.40;;
5345;SDS011;2695;49.444;11.054;2023-02-01T10:21:16;10.53;;;3.30;;
5345;SDS011;2695;49.444;11.054;2023-02-01T10:24:02;13.57;;;4.30;;
5345;SDS011;2695;49.444;11.054;2023-02-01T10:26:44;8.20;;;3.90;;
5345;SDS011;2695;49.444;11.054;2023-02-01T10:29:18;7.97;;;3.60;;
5345;SDS011;2695;49.444;11.054;2023-02-01T10:31:49;6.43;;;2.80;;
5345;SDS011;2695;49.444;11.054;2023-02-01T10:34:18;10.63;;;2.80;;
5345;SDS011;2695;49.444;11.054;2023-02-01T10:36:50;7.70;;;2.80;;
5345;SDS011;2695;49.444;11.054;2023-02-01T10:39:22;11.93;;;3.27;;
5345;SDS011;2695;49.444;11.054;2023-02-01T10:41:53;3.33;;;2.33;;
5345;SDS011;2695;49.444;11.054;2023-02-01T10:44:27;11.27;;;3.10;;
5345;SDS011;2695;49.444;11.054;2023-02-01T10:46:58;5.13;;;3.07;;
5345;SDS011;2695;49.444;11.054;2023-02-01T10:49:33;9.27;;;3.07;;
5345;SDS011;2695;49.444;11.054;2023-02-01T10:52:12;5.53;;;2.63;;
5345;SDS011;2695;49.444;11.054;2023-02-01T10:54:44;8.10;;;3.17;;
5345;SDS011;2695;49.444;11.054;2023-02-01T10:57:20;11.27;;;4.50;;
5345;SDS011;2695;49.444;11.054;2023-02-01T10:59:56;8.93;;;3.17;;
5345;SDS011;2695;49.444;11.054;2023-02-01T11:02:25;6.87;;;4.33;;
5345;SDS011;2695;49.444;11.054;2023-02-01T11:05:00;12.37;;;3.97;;
5345;SDS011;2695;49.444;11.054;2023-02-01T11:07:30;4.50;;;3.00;;
5345;SDS011;2695;49.444;11.054;2023-02-01T11:09:59;10.17;;;2.73;;
5345;SDS011;2695;49.444;11.054;2023-02-01T11:12:30;8.80;;;3.30;;
5345;SDS011;2695;49.444;11.054;2023-02-01T11:15:03;9.17;;;2.90;;
5345;SDS011;2695;49.444;11.054;2023-02-01T11:17:42;8.90;;;3.30;;
5345;SDS011;2695;49.444;11.054;2023-02-01T11:20:14;6.97;;;3.37;;
5345;SDS011;2695;49.444;11.054;2023-02-01T11:22:47;9.30;;;2.00;;
5345;SDS011;2695;49.444;11.054;2023-02-01T11:25:19;11.90;;;3.50;;
5345;SDS011;2695;49.444;11.054;2023-02-01T11:27:49;8.53;;;3.20;;
5345;SDS011;2695;49.444;11.054;2023-02-01T11:30:25;5.40;;;2.50;;
5345;SDS011;2695;49.444;11.054;2023-02-01T11:32:59;5.87;;;1.80;;
5345;SDS011;2695;49.444;11.054;2023-02-01T11:35:31;8.37;;;2.10;;
5345;SDS011;2695;49.444;11.054;2023-02-01T11:38:09;6.63;;;3.00;;
5345;SDS011;2695;49.444;11.054;2023-02-01T11:40:41;6.67;;;2.17;;
5345;SDS011;2695;49.444;11.054;2023-02-01T11:43:12;13.43;;;4.70;;
5345;SDS011;2695;49.444;11.054;2023-02-01T11:45:53;7.40;;;2.73;;
5345;SDS011;2695;49.444;11.054;2023-02-01T11:48:22;5.00;;;2.50;;
5345;SDS011;2695;49.444;11.054;2023-02-01T11:50:56;8.77;;;2.40;;
5345;SDS011;2695;49.444;11.054;2023-02-01T11:53:41;8.00;;;2.50;;
5345;SDS011;2695;49.444;11.054;2023-02-01T11:56:25;6.60;;;2.40;;
5345;SDS011;2695;49.444;11.054;2023-02-01T11:59:13;10.23;;;2.33;;
5345;SDS011;2695;49.444;11.054;2023-02-01T12:01:58;3.67;;;2.07;;
5345;SDS011;2695;49.444;11.054;2023-02-01T12:04:45;7.80;;;2.20;;
5345;SDS011;2695;49.444;11.054;2023-02-01T12:07:28;9.40;;;3.53;;
5345;SDS011;2695;49.444;11.054;2023-02-01T12:10:12;15.70;;;3.70;;
5345;SDS011;2695;49.444;11.054;2023-02-01T12:12:54;11.00;;;3.00;;
5345;SDS011;2695;49.444;11.054;2023-02-01T12:15:38;6.50;;;2.07;;
5345;SDS011;2695;49.444;11.054;2023-02-01T12:18:34;12.67;;;2.30;;
5345;SDS011;2695;49.444;11.054;2023-02-01T12:21:28;8.67;;;2.67;;
5345;SDS011;2695;49.444;11.054;2023-02-01T12:24:15;6.03;;;1.83;;
5345;SDS011;2695;49.444;11.054;2023-02-01T12:26:56;4.80;;;2.07;;
5345;SDS011;2695;49.444;11.054;2023-02-01T12:29:39;6.70;;;2.40;;
5345;SDS011;2695;49.444;11.054;2023-02-01T12:32:25;11.33;;;2.70;;
5345;SDS011;2695;49.444;11.054;2023-02-01T12:35:17;5.30;;;2.70;;
5345;SDS011;2695;49.444;11.054;2023-02-01T12:38:06;8.83;;;2.70;;
5345;SDS011;2695;49.444;11.054;2023-02-01T12:40:52;12.93;;;2.60;;
5345;SDS011;2695;49.444;11.054;2023-02-01T12:43:32;11.50;;;3.27;;
5345;SDS011;2695;49.444;11.054;2023-02-01T12:46:07;6.43;;;2.23;;
5345;SDS011;2695;49.444;11.054;2023-02-01T12:48:39;5.53;;;2.13;;
5345;SDS011;2695;49.444;11.054;2023-02-01T12:51:18;4.33;;;2.40;;
5345;SDS011;2695;49.444;11.054;2023-02-01T12:53:50;8.03;;;2.13;;
5345;SDS011;2695;49.444;11.054;2023-02-01T12:56:21;9.87;;;2.67;;
5345;SDS011;2695;49.444;11.054;2023-02-01T12:58:53;10.47;;;2.70;;
5345;SDS011;2695;49.444;11.054;2023-02-01T13:01:28;7.40;;;2.07;;
5345;SDS011;2695;49.444;11.054;2023-02-01T13:04:03;6.50;;;1.97;;
5345;SDS011;2695;49.444;11.054;2023-02-01T13:06:39;7.73;;;2.27;;
5345;SDS011;2695;49.444;11.054;2023-02-01T13:09:15;9.17;;;2.83;;
5345;SDS011;2695;49.444;11.054;2023-02-01T13:11:50;8.73;;;2.00;;
5345;SDS011;2695;49.444;11.054;2023-02-01T13:14:25;6.50;;;2.50;;
5345;SDS011;2695;49.444;11.054;2023-02-01T13:16:59;10.77;;;2.93;;
5345;SDS011;2695;49.444;11.054;2023-02-01T13:19:40;5.60;;;2.33;;
5345;SDS011;2695;49.444;11.054;2023-02-01T13:22:15;6.17;;;2.40;;
5345;SDS011;2695;49.444;11.054;2023-02-01T13:24:56;8.80;;;3.23;;
5345;SDS011;2695;49.444;11.054;2023-02-01T13:27:27;5.60;;;2.83;;
5345;SDS011;2695;49.444;11.054;2023-02-01T13:29:57;16.17;;;2.80;;
5345;SDS011;2695;49.444;11.054;2023-02-01T13:35:47;8.63;;;3.00;;
5345;SDS011;2695;49.444;11.054;2023-02-01T13:38:42;8.83;;;3.27;;
5345;SDS011;2695;49.444;11.054;2023-02-01T13:41:27;10.30;;;2.90;;
5345;SDS011;2695;49.444;11.054;2023-02-01T13:43:58;9.23;;;2.33;;
5345;SDS011;2695;49.444;11.054;2023-02-01T13:46:28;11.37;;;2.10;;
5345;SDS011;2695;49.444;11.054;2023-02-01T13:48:58;8.53;;;2.13;;
5345;SDS011;2695;49.444;11.054;2023-02-01T13:51:33;8.47;;;2.30;;
5345;SDS011;2695;49.444;11.054;2023-02-01T13:54:05;4.40;;;1.70;;
5345;SDS011;2695;49.444;11.054;2023-02-01T13:56:40;6.47;;;2.50;;
5345;SDS011;2695;49.444;11.054;2023-02-01T14:08:24;9.73;;;2.50;;
5345;SDS011;2695;49.444;11.054;2023-02-01T14:11:06;5.43;;;2.10;;
5345;SDS011;2695;49.444;11.054;2023-02-01T14:23:19;5.40;;;2.30;;
5345;SDS011;2695;49.444;11.054;2023-02-01T14:26:01;8.90;;;2.50;;
5345;SDS011;2695;49.444;11.054;2023-02-01T14:31:50;4.03;;;1.87;;
5345;SDS011;2695;49.444;11.054;2023-02-01T14:34:26;10.23;;;2.90;;
5345;SDS011;2695;49.444;11.054;2023-02-01T14:37:09;6.23;;;2.40;;
5345;SDS011;2695;49.444;11.054;2023-02-01T14:39:53;13.10;;;2.80;;
5345;SDS011;2695;49.444;11.054;2023-02-01T14:42:26;15.33;;;2.87;;
5345;SDS011;2695;49.444;11.054;2023-02-01T14:50:59;18.00;;;2.83;;
5345;SDS011;2695;49.444;11.054;2023-02-01T14:53:29;4.43;;;2.03;;
5345;SDS011;2695;49.444;11.054;2023-02-01T14:56:05;10.20;;;2.43;;
5345;SDS011;2695;49.444;11.054;2023-02-01T14:58:41;10.53;;;3.13;;
5345;SDS011;2695;49.444;11.054;2023-02-01T15:01:15;11.37;;;3.33;;
5345;SDS011;2695;49.444;11.054;2023-02-01T15:03:56;7.10;;;2.53;;
5345;SDS011;2695;49.444;11.054;2023-02-01T15:06:29;4.03;;;2.27;;
5345;SDS011;2695;49.444;11.054;2023-02-01T15:09:02;8.03;;;3.10;;
5345;SDS011;2695;49.444;11.054;2023-02-01T15:11:31;11.07;;;3.83;;
5345;SDS011;2695;49.444;11.054;2023-02-01T15:14:01;16.00;;;2.80;;
5345;SDS011;2695;49.444;11.054;2023-02-01T15:16:29;9.50;;;2.40;;
5345;SDS011;2695;49.444;11.054;2023-02-01T15:19:06;4.30;;;2.03;;
5345;SDS011;2695;49.444;11.054;2023-02-01T15:21:43;9.47;;;2.67;;
5345;SDS011;2695;49.444;11.054;2023-02-01T15:24:12;12.70;;;3.20;;
5345;SDS011;2695;49.444;11.054;2023-02-01T15:26:42;8.37;;;2.60;;
5345;SDS011;2695;49.444;11.054;2023-02-01T15:29:12;15.80;;;3.10;;
5345;SDS011;2695;49.444;11.054;2023-02-01T15:31:42;8.37;;;2.20;;
5345;SDS011;2695;49.444;11.054;2023-02-01T15:34:12;10.00;;;2.33;;
5345;SDS011;2695;49.444;11.054;2023-02-01T15:36:40;9.17;;;2.70;;
5345;SDS011;2695;49.444;11.054;2023-02-01T15:39:27;13.20;;;3.03;;
5345;SDS011;2695;49.444;11.054;2023-02-01T15:41:58;8.50;;;2.47;;
5345;SDS011;2695;49.444;11.054;2023-02-01T16:00:39;14.63;;;2.67;;
5345;SDS011;2695;49.444;11.054;2023-02-01T16:04:46;8.93;;;2.63;;
5345;SDS011;2695;49.444;11.054;2023-02-01T16:08:03;7.07;;;2.07;;
5345;SDS011;2695;49.444;11.054;2023-02-01T16:11:20;4.00;;;2.60;;
5345;SDS011;2695;49.444;11.054;2023-02-01T16:13:57;8.13;;;1.97;;
5345;SDS011;2695;49.444;11.054;2023-02-01T16:16:47;6.70;;;2.37;;
5345;SDS011;2695;49.444;11.054;2023-02-01T16:20:17;10.97;;;3.20;;
5345;SDS011;2695;49.444;11.054;2023-02-01T16:23:57;17.87;;;6.90;;
5345;SDS011;2695;49.444;11.054;2023-02-01T16:26:34;10.60;;;4.17;;
5345;SDS011;2695;49.444;11.054;2023-02-01T16:29:03;9.30;;;3.60;;
5345;SDS011;2695;49.444;11.054;2023-02-01T16:31:34;7.10;;;2.60;;
5345;SDS011;2695;49.444;11.054;2023-02-01T16:34:04;13.20;;;1.97;;